»·PEaware :: AAL715 KELP-KABQ

AAL715 :: KELP-KABQ

FLIGHT INFORMATION

Flight Status: Arrived
Operator:
American Airlines
More flights by this operator :: More flights under this callsign
Pilot: Anonymous A. (29301)
Aircraft: AIRBUS A319
(A319)
More flights by this aircraft type
Origin: KELP El Paso Intl
United States
Destination: KABQ Albuquerque Intl Sunport
United States
More flights between these airports :: More routes between these airports
Route: +LATVE3 CME LZZRD3
File this flight plan on PilotEdge
Remarks:
Altitude:
(Current/Filed)
34,000ft
Speed:
(Current/Filed)
270kts
Departed: 29-Apr-20 07:18 AM
Arrived: 29-Apr-20 08:11 AM
Distance/Time
Traveled:
195nm/0:53
Distance/Time
To Go:
Arrived

Flight Plot

Page will automatically refresh every two minutes.

Flight plan parsing failed; only flown route is shown


Map Options




Map Legend


Flown Route
Filed Route
Departure Airport
Arrival Airport
Navaid (VOR, NDB)
Fix

Horizontal Profiles

Position Reports

Time Latitude Longitude Heading Altitude Ground
Speed
29-Apr-20 07:00 31.800796 -106.397348 174 3923ft 0kts
29-Apr-20 07:01 31.800796 -106.397348 174 3923ft 0kts
29-Apr-20 07:02 31.800796 -106.397348 174 3923ft 0kts
29-Apr-20 07:03 31.800796 -106.397348 174 3923ft 0kts
29-Apr-20 07:04 31.800796 -106.397348 174 3923ft 0kts
29-Apr-20 07:05 31.800796 -106.397348 174 3923ft 0kts
29-Apr-20 07:06 31.800814 -106.397350 175 3923ft 1kts
29-Apr-20 07:07 31.800895 -106.397358 174 3923ft 0kts
29-Apr-20 07:08 31.800895 -106.397358 174 3923ft 0kts
29-Apr-20 07:09 31.800895 -106.397358 174 3923ft 0kts
29-Apr-20 07:10 31.800895 -106.397358 174 3923ft 0kts
29-Apr-20 07:11 31.801167 -106.397407 146 3923ft 2kts
29-Apr-20 07:12 31.801239 -106.397937 48 3923ft 1kts
29-Apr-20 07:13 31.801223 -106.397960 50 3923ft 0kts
29-Apr-20 07:14 31.801493 -106.395626 93 3925ft 11kts
29-Apr-20 07:15 31.801187 -106.392000 124 3928ft 10kts
29-Apr-20 07:16 31.799894 -106.388972 83 3931ft 10kts
29-Apr-20 07:17 31.801902 -106.385673 93 3935ft 52kts
29-Apr-20 07:18 31.800047 -106.334405 87 5066ft 200kts
29-Apr-20 07:19 31.802517 -106.262961 87 7277ft 253kts
29-Apr-20 07:20 31.804800 -106.169246 83 9765ft 313kts
29-Apr-20 07:21 31.839141 -106.074345 50 12904ft 330kts
29-Apr-20 07:22 31.898773 -105.988344 45 16101ft 343kts
29-Apr-20 07:23 31.960410 -105.900398 43 19024ft 354kts
29-Apr-20 07:24 32.029562 -105.811320 42 21674ft 365kts
29-Apr-20 07:25 32.103787 -105.728867 35 23689ft 378kts
29-Apr-20 07:26 32.188702 -105.645290 35 25174ft 406kts
29-Apr-20 07:27 32.276254 -105.558413 35 27036ft 415kts
29-Apr-20 07:28 32.365393 -105.469636 35 28642ft 424kts
29-Apr-20 07:29 32.457170 -105.379576 34 29996ft 433kts
29-Apr-20 07:30 32.549899 -105.290794 35 31601ft 430kts
29-Apr-20 07:31 32.641968 -105.202354 35 33090ft 425kts
29-Apr-20 07:32 32.734846 -105.114747 31 34017ft 420kts
29-Apr-20 07:33 32.832041 -105.036399 30 34008ft 426kts
29-Apr-20 07:34 32.930395 -104.956168 30 34041ft 432kts
29-Apr-20 07:35 33.030296 -104.874186 30 34038ft 434kts
29-Apr-20 07:36 33.129901 -104.792293 30 33994ft 427kts
29-Apr-20 07:37 33.227417 -104.711956 31 33979ft 427kts
29-Apr-20 07:38 33.338454 -104.673897 352 33974ft 418kts
29-Apr-20 07:40 33.438576 -104.737665 317 33977ft 420kts
29-Apr-20 07:41 33.524801 -104.837591 317 33976ft 420kts
29-Apr-20 07:42 33.608683 -104.935168 317 33986ft 419kts
29-Apr-20 07:43 33.692651 -105.033152 316 33707ft 420kts
29-Apr-20 07:44 33.776248 -105.131021 316 32705ft 419kts
29-Apr-20 07:45 33.864275 -105.234418 316 31721ft 417kts
29-Apr-20 07:46 33.953156 -105.339090 316 30753ft 414kts
29-Apr-20 07:47 34.037271 -105.438405 316 29763ft 413kts
29-Apr-20 07:48 34.118967 -105.535068 316 28761ft 413kts
29-Apr-20 07:49 34.198314 -105.628015 317 27752ft 377kts
29-Apr-20 07:50 34.272208 -105.713089 316 26745ft 361kts
29-Apr-20 07:51 34.343964 -105.796097 314 25562ft 354kts
29-Apr-20 07:52 34.378513 -105.905876 281 23870ft 354kts
29-Apr-20 07:53 34.392467 -106.022975 281 22121ft 348kts
29-Apr-20 07:54 34.406142 -106.138524 281 20366ft 342kts
29-Apr-20 07:55 34.419347 -106.252156 281 18377ft 342kts
29-Apr-20 07:55 34.430183 -106.346776 281 16737ft 336kts
29-Apr-20 07:57 34.444833 -106.475909 281 14807ft 320kts
29-Apr-20 07:57 34.457496 -106.558027 302 14460ft 280kts
29-Apr-20 07:59 34.526815 -106.623372 329 12926ft 269kts
29-Apr-20 08:00 34.591786 -106.665711 336 11655ft 262kts
29-Apr-20 08:00 34.648174 -106.692434 335 10561ft 261kts
29-Apr-20 08:01 34.715651 -106.724389 334 9770ft 245kts
29-Apr-20 08:02 34.775603 -106.741136 8 9584ft 214kts
29-Apr-20 08:03 34.828786 -106.725448 4 9017ft 170kts
29-Apr-20 08:04 34.876495 -106.721065 358 8652ft 170kts
29-Apr-20 08:05 34.923505 -106.722615 353 7781ft 167kts
29-Apr-20 08:07 34.977561 -106.726610 353 6389ft 161kts
29-Apr-20 08:07 35.010122 -106.714193 38 6009ft 151kts
29-Apr-20 08:08 35.039596 -106.678020 60 6073ft 153kts
29-Apr-20 08:09 35.044454 -106.628564 92 5437ft 145kts
29-Apr-20 08:10 35.044189 -106.595011 89 5330ft 33kts
29-Apr-20 08:11 35.045816 -106.592286 269 5333ft 12kts
29-Apr-20 08:12 35.045853 -106.597852 269 5328ft 19kts
29-Apr-20 08:13 35.045758 -106.604783 270 5325ft 21kts
29-Apr-20 08:14 35.045813 -106.612252 271 5322ft 22kts

Navigation Log

Ident Type
Flight plan parsing failed, navigation log unavailable